Time;durP1;ratioP1;P1;durP2;ratioP2;P2;SDS_P1;SDS_P2;PMS_P1;PMS_P2;Temp;Humidity;BMP_temperature;BMP_pressure;BME280_temperature;BME280_humidity;BME280_pressure;Samples;Min_cycle;Max_cycle;Signal;HPM_P1;HPM_P2
2023/11/28 00:02:13;;;;;;;48.25;24.17;;;-0.50;99.90;;;;;;4976971;28;20030;-64
2023/11/28 00:04:39;;;;;;;50.88;22.30;;;-0.50;99.90;;;;;;4980931;28;20109;-64
2023/11/28 00:07:04;;;;;;;45.88;23.10;;;-0.50;99.90;;;;;;4982818;28;20061;-65
2023/11/28 00:09:29;;;;;;;53.72;23.05;;;-0.50;99.90;;;;;;4980729;28;20042;-65
2023/11/28 00:11:56;;;;;;;56.88;24.48;;;-0.50;99.90;;;;;;4979745;28;20030;-64
2023/11/28 00:14:22;;;;;;;51.60;26.75;;;-0.50;99.90;;;;;;4980345;28;20046;-64
2023/11/28 00:16:47;;;;;;;49.63;25.75;;;-0.50;99.90;;;;;;4980500;28;20120;-63
2023/11/28 00:19:13;;;;;;;57.63;25.83;;;-0.50;99.90;;;;;;4979439;28;20022;-64
2023/11/28 00:21:38;;;;;;;58.45;26.80;;;-0.50;99.90;;;;;;4977158;28;20058;-63
2023/11/28 00:24:04;;;;;;;52.75;25.85;;;-0.50;99.90;;;;;;4982162;28;20141;-64
2023/11/28 00:26:30;;;;;;;54.20;25.48;;;-0.50;99.90;;;;;;4980443;28;20025;-64
2023/11/28 00:28:55;;;;;;;48.70;23.75;;;-0.50;99.90;;;;;;4979950;28;20042;-64
2023/11/28 00:31:20;;;;;;;49.80;23.90;;;-0.50;99.90;;;;;;4980234;28;20053;-64
2023/11/28 00:33:47;;;;;;;54.00;25.85;;;-0.50;99.90;;;;;;4980178;28;20056;-64
2023/11/28 00:36:15;;;;;;;54.00;25.98;;;-0.50;99.90;;;;;;4979955;28;20022;-63
2023/11/28 00:38:41;;;;;;;56.92;26.00;;;-0.60;99.90;;;;;;4975408;28;20031;-60
2023/11/28 00:41:07;;;;;;;67.78;30.08;;;-0.50;99.90;;;;;;4981926;28;20034;-65
2023/11/28 00:43:32;;;;;;;56.17;28.15;;;-0.60;99.90;;;;;;4979991;28;20030;-65
2023/11/28 00:45:58;;;;;;;57.53;28.05;;;-0.60;99.90;;;;;;4980209;28;20038;-65
2023/11/28 00:48:23;;;;;;;57.47;26.63;;;-0.60;99.90;;;;;;4980077;28;20039;-64
2023/11/28 00:50:50;;;;;;;57.50;26.08;;;-0.60;99.90;;;;;;4980175;28;20034;-64
2023/11/28 00:53:15;;;;;;;54.10;26.15;;;-0.60;99.90;;;;;;4982134;28;20105;-64
2023/11/28 00:55:41;;;;;;;55.95;25.63;;;-0.60;99.90;;;;;;4980382;28;20050;-64
2023/11/28 00:58:06;;;;;;;54.22;25.67;;;-0.60;99.90;;;;;;4980082;28;20034;-64
2023/11/28 01:00:32;;;;;;;50.40;24.85;;;-0.60;99.90;;;;;;4980262;28;20101;-64
2023/11/28 01:02:59;;;;;;;52.92;26.13;;;-0.60;99.90;;;;;;4976199;28;20041;-64
2023/11/28 01:05:25;;;;;;;57.72;27.40;;;-0.70;99.90;;;;;;4979855;28;20038;-64
2023/11/28 01:07:50;;;;;;;55.35;26.27;;;-0.70;99.90;;;;;;4981916;28;20076;-65
2023/11/28 01:10:16;;;;;;;57.97;24.83;;;-0.70;99.90;;;;;;4979843;28;20496;-63
2023/11/28 01:12:42;;;;;;;52.60;24.38;;;-0.70;99.90;;;;;;4980120;28;20042;-64
2023/11/28 01:15:08;;;;;;;55.95;26.35;;;-0.70;99.90;;;;;;4979947;28;20026;-65
2023/11/28 01:17:33;;;;;;;54.78;28.00;;;-0.70;99.90;;;;;;4979880;28;20033;-64
2023/11/28 01:19:59;;;;;;;52.05;24.48;;;-0.80;99.90;;;;;;4980166;28;20026;-65
2023/11/28 01:22:24;;;;;;;52.35;25.52;;;-0.80;99.90;;;;;;4976505;28;20105;-63
2023/11/28 01:24:50;;;;;;;58.08;26.35;;;-0.80;99.90;;;;;;4985364;28;20030;-64
2023/11/28 01:27:15;;;;;;;56.13;24.27;;;-0.80;99.90;;;;;;4983637;28;20042;-64
2023/11/28 01:29:41;;;;;;;58.15;26.15;;;-0.90;99.90;;;;;;4983504;28;20026;-64
2023/11/28 01:32:06;;;;;;;52.75;24.38;;;-0.80;99.90;;;;;;4983777;28;20812;-64
2023/11/28 01:34:32;;;;;;;49.17;23.00;;;-0.90;99.90;;;;;;4983549;28;20053;-64
2023/11/28 01:36:57;;;;;;;47.65;22.95;;;-0.90;99.90;;;;;;4976770;28;20022;-63
2023/11/28 01:39:23;;;;;;;51.35;23.05;;;-0.90;99.90;;;;;;4984296;28;20097;-64
2023/11/28 01:41:49;;;;;;;56.05;23.13;;;-0.90;99.90;;;;;;4983266;28;20046;-64
2023/11/28 01:44:15;;;;;;;44.13;22.15;;;-0.90;99.90;;;;;;4983380;28;20053;-64
2023/11/28 01:46:42;;;;;;;51.50;21.98;;;-1.00;99.90;;;;;;4983100;28;20065;-65
2023/11/28 01:49:08;;;;;;;44.38;20.80;;;-1.00;99.90;;;;;;4983207;28;20022;-64
2023/11/28 01:51:35;;;;;;;48.13;21.02;;;-1.00;99.90;;;;;;4983139;28;20049;-64
2023/11/28 01:54:02;;;;;;;46.85;22.60;;;-1.00;99.90;;;;;;4983034;28;20037;-64
2023/11/28 01:56:29;;;;;;;45.83;22.58;;;-1.00;99.90;;;;;;4983100;28;20546;-63
2023/11/28 01:58:56;;;;;;;50.35;22.08;;;-1.00;99.90;;;;;;4980881;28;20026;-64
2023/11/28 02:01:23;;;;;;;51.83;21.10;;;-1.00;99.90;;;;;;4980752;28;20466;-63
2023/11/28 02:03:50;;;;;;;47.13;21.02;;;-1.00;99.90;;;;;;4982808;28;20092;-64
2023/11/28 02:06:16;;;;;;;48.25;21.35;;;-1.10;99.90;;;;;;4983018;28;20041;-63
2023/11/28 02:08:41;;;;;;;46.08;21.42;;;-1.00;99.90;;;;;;4982460;28;20034;-63
2023/11/28 02:11:07;;;;;;;48.80;21.98;;;-1.10;99.90;;;;;;4982349;28;20056;-63
2023/11/28 02:13:34;;;;;;;43.15;20.77;;;-1.10;99.90;;;;;;4981871;28;20513;-63
2023/11/28 02:16:09;;;;;;;39.17;19.50;;;-1.10;99.90;;;;;;4984409;28;20036;-64
2023/11/28 02:18:34;;;;;;;43.80;19.25;;;-1.10;99.90;;;;;;4981159;28;20556;-65
2023/11/28 02:21:00;;;;;;;44.90;19.38;;;-1.10;99.90;;;;;;4981325;28;20028;-65
2023/11/28 02:23:25;;;;;;;50.25;19.40;;;-1.10;99.90;;;;;;4982500;28;20034;-64
2023/11/28 02:25:55;;;;;;;40.70;18.00;;;-1.10;99.90;;;;;;4982410;28;20568;-64
2023/11/28 02:28:24;;;;;;;45.47;18.38;;;-1.10;99.90;;;;;;4980643;28;20062;-63
2023/11/28 02:30:51;;;;;;;39.20;17.65;;;-1.10;99.90;;;;;;4982678;28;20022;-65
2023/11/28 02:33:16;;;;;;;36.88;17.88;;;-1.10;99.90;;;;;;4982075;28;20027;-63
2023/11/28 02:35:42;;;;;;;37.13;16.65;;;-1.10;99.90;;;;;;4982233;28;20030;-62
2023/11/28 02:38:08;;;;;;;34.40;15.95;;;-1.10;99.90;;;;;;4976091;28;20022;-63
2023/11/28 02:40:34;;;;;;;32.85;15.02;;;-1.10;99.90;;;;;;4984185;28;20073;-64
2023/11/28 02:43:00;;;;;;;35.75;15.75;;;-1.10;99.90;;;;;;4981912;28;20030;-65
2023/11/28 02:45:25;;;;;;;32.15;14.93;;;-1.10;99.90;;;;;;4981994;28;20096;-63
2023/11/28 02:47:51;;;;;;;33.72;15.18;;;-1.10;99.90;;;;;;4981920;28;20045;-63
2023/11/28 02:50:16;;;;;;;31.98;14.40;;;-1.10;99.90;;;;;;4981838;28;20465;-63
2023/11/28 02:52:42;;;;;;;27.33;13.50;;;-1.10;99.90;;;;;;4982029;28;20062;-63
2023/11/28 02:55:07;;;;;;;28.88;14.05;;;-1.10;99.90;;;;;;4983506;28;20393;-64
2023/11/28 02:57:33;;;;;;;31.85;13.52;;;-1.20;99.90;;;;;;4981804;28;20041;-63
2023/11/28 02:59:59;;;;;;;27.75;13.50;;;-1.20;99.90;;;;;;4977835;28;20414;-63
2023/11/28 03:02:24;;;;;;;31.88;13.82;;;-1.20;99.90;;;;;;4981757;28;20034;-64
2023/11/28 03:04:50;;;;;;;28.92;13.50;;;-1.20;99.90;;;;;;4981626;28;20281;-55
2023/11/28 03:07:15;;;;;;;26.45;12.73;;;-1.20;99.90;;;;;;4981759;28;20045;-60
2023/11/28 03:09:41;;;;;;;28.20;12.73;;;-1.20;99.90;;;;;;4981865;28;20034;-60
2023/11/28 03:12:08;;;;;;;25.30;11.88;;;-1.20;99.90;;;;;;4979378;28;20168;-60
2023/11/28 03:14:33;;;;;;;26.50;12.02;;;-1.20;99.90;;;;;;4980821;28;20202;-60
2023/11/28 03:16:59;;;;;;;26.60;12.65;;;-1.20;99.90;;;;;;4979808;28;20664;-60
2023/11/28 03:19:26;;;;;;;24.27;10.52;;;-1.20;99.90;;;;;;4980569;28;20030;-60
2023/11/28 03:21:52;;;;;;;26.00;11.23;;;-1.20;99.90;;;;;;4981278;28;20027;-60
2023/11/28 03:24:17;;;;;;;25.80;10.73;;;-1.20;99.90;;;;;;4980976;28;20037;-60
2023/11/28 03:26:43;;;;;;;22.05;10.90;;;-1.20;99.90;;;;;;4982918;28;20113;-60
2023/11/28 03:29:08;;;;;;;22.95;10.35;;;-1.10;99.90;;;;;;4980972;28;20102;-60
2023/11/28 03:31:34;;;;;;;25.13;11.90;;;-1.10;99.90;;;;;;4980630;28;20222;-60
2023/11/28 03:33:59;;;;;;;19.83;10.13;;;-1.10;99.90;;;;;;4980622;28;20487;-59
2023/11/28 03:36:25;;;;;;;22.00;9.38;;;-1.20;99.90;;;;;;4974399;28;20030;-59
2023/11/28 03:38:50;;;;;;;21.58;11.02;;;-1.20;99.90;;;;;;4982869;28;20042;-60
2023/11/28 03:41:16;;;;;;;19.38;8.73;;;-1.10;99.90;;;;;;4981042;28;20102;-59
2023/11/28 03:43:41;;;;;;;19.50;8.77;;;-1.10;99.90;;;;;;4980792;28;20045;-60
2023/11/28 03:46:07;;;;;;;19.48;8.95;;;-1.10;99.90;;;;;;4979838;28;20096;-60
2023/11/28 03:48:32;;;;;;;18.45;9.07;;;-1.20;99.90;;;;;;4979461;28;20108;-60
2023/11/28 03:50:58;;;;;;;20.63;9.23;;;-1.20;99.90;;;;;;4978564;28;20030;-60
2023/11/28 03:53:23;;;;;;;20.17;8.20;;;-1.20;99.90;;;;;;4982419;28;20098;-58
2023/11/28 03:55:49;;;;;;;16.55;8.40;;;-1.20;99.90;;;;;;4980401;28;20475;-60
2023/11/28 03:58:14;;;;;;;18.83;8.25;;;-1.20;99.90;;;;;;4980576;28;20030;-60
2023/11/28 04:00:41;;;;;;;18.73;8.65;;;-1.20;99.90;;;;;;4980352;28;20274;-60
2023/11/28 04:03:06;;;;;;;17.48;8.10;;;-1.20;99.90;;;;;;4980573;28;20387;-60
2023/11/28 04:05:32;;;;;;;18.65;8.38;;;-1.20;99.90;;;;;;4980219;28;20034;-60
2023/11/28 04:07:57;;;;;;;17.25;8.38;;;-1.20;99.90;;;;;;4980613;28;20109;-60
2023/11/28 04:10:23;;;;;;;18.55;7.25;;;-1.20;99.90;;;;;;4982400;28;20463;-60
2023/11/28 04:12:49;;;;;;;14.57;7.63;;;-1.20;99.90;;;;;;4980400;28;20450;-60
2023/11/28 04:15:14;;;;;;;17.92;8.82;;;-1.20;99.90;;;;;;4980186;28;20042;-60
2023/11/28 04:17:40;;;;;;;15.52;7.32;;;-1.20;99.90;;;;;;4979783;28;20072;-60
2023/11/28 04:20:06;;;;;;;19.58;9.05;;;-1.20;99.90;;;;;;4979821;28;20034;-59
2023/11/28 04:22:32;;;;;;;17.63;7.70;;;-1.20;99.90;;;;;;4979788;28;20557;-60
2023/11/28 04:24:57;;;;;;;17.83;8.50;;;-1.20;99.90;;;;;;4981378;28;20023;-60
2023/11/28 04:27:23;;;;;;;18.92;8.77;;;-1.30;99.90;;;;;;4980127;28;20482;-61
2023/11/28 04:29:48;;;;;;;15.00;7.45;;;-1.20;99.90;;;;;;4980263;28;20026;-61
2023/11/28 04:32:14;;;;;;;16.80;7.88;;;-1.30;99.90;;;;;;4980221;28;20022;-61
2023/11/28 04:34:40;;;;;;;15.93;8.52;;;-1.30;99.90;;;;;;4980128;28;20031;-59
2023/11/28 04:37:05;;;;;;;14.65;8.18;;;-1.30;99.90;;;;;;4978175;28;20026;-60
2023/11/28 04:39:31;;;;;;;17.55;8.27;;;-1.30;99.90;;;;;;4975931;28;20034;-60
2023/11/28 04:41:56;;;;;;;18.73;7.95;;;-1.30;99.90;;;;;;4979869;28;20039;-60
2023/11/28 04:44:22;;;;;;;17.02;7.60;;;-1.30;99.90;;;;;;4980025;28;20042;-60
2023/11/28 04:46:47;;;;;;;18.42;9.38;;;-1.30;99.90;;;;;;4979892;28;20126;-59
2023/11/28 04:49:14;;;;;;;19.33;8.35;;;-1.30;99.90;;;;;;4979757;28;20506;-60
2023/11/28 04:51:39;;;;;;;17.30;7.78;;;-1.30;99.90;;;;;;4981895;28;20616;-60
2023/11/28 04:54:05;;;;;;;21.38;8.48;;;-1.30;99.90;;;;;;4979924;28;20064;-60
2023/11/28 04:56:30;;;;;;;18.27;7.97;;;-1.40;99.90;;;;;;4981129;28;20069;-60
2023/11/28 04:58:56;;;;;;;18.25;8.57;;;-1.40;99.90;;;;;;4980529;28;20030;-60
2023/11/28 05:01:22;;;;;;;14.40;7.18;;;-1.40;99.90;;;;;;4979740;28;20014;-60
2023/11/28 05:03:48;;;;;;;13.23;6.82;;;-1.40;99.90;;;;;;4982678;28;20026;-60
2023/11/28 05:06:14;;;;;;;16.83;8.13;;;-1.40;99.90;;;;;;4983263;28;20030;-60
2023/11/28 05:08:39;;;;;;;14.88;8.77;;;-1.40;99.90;;;;;;4982665;28;20041;-60
2023/11/28 05:11:05;;;;;;;20.05;8.35;;;-1.40;99.90;;;;;;4981533;28;20034;-60
2023/11/28 05:13:32;;;;;;;22.58;10.60;;;-1.40;99.90;;;;;;4982759;28;20383;-60
2023/11/28 05:15:59;;;;;;;21.30;9.48;;;-1.30;99.90;;;;;;4982714;28;20037;-61
2023/11/28 05:18:24;;;;;;;19.77;9.98;;;-1.40;99.90;;;;;;4981287;28;20053;-60
2023/11/28 05:20:50;;;;;;;24.55;9.90;;;-1.40;99.90;;;;;;4986806;28;20506;-60
2023/11/28 05:23:15;;;;;;;21.95;10.23;;;-1.40;99.90;;;;;;4984671;28;20038;-60
2023/11/28 05:25:41;;;;;;;25.25;10.00;;;-1.40;99.90;;;;;;4982569;28;20443;-61
2023/11/28 05:28:06;;;;;;;29.75;12.38;;;-1.40;99.90;;;;;;4983173;28;20042;-61
2023/11/28 05:30:32;;;;;;;20.65;10.43;;;-1.40;99.90;;;;;;4981509;28;20030;-61
2023/11/28 05:32:57;;;;;;;26.98;11.68;;;-1.40;99.90;;;;;;4974386;28;20375;-60
2023/11/28 05:35:23;;;;;;;29.00;13.45;;;-1.40;99.90;;;;;;4983583;28;20026;-60
2023/11/28 05:37:48;;;;;;;28.98;12.95;;;-1.40;99.90;;;;;;4979480;28;20022;-60
2023/11/28 05:40:15;;;;;;;28.00;12.82;;;-1.40;99.90;;;;;;4983483;28;20030;-60
2023/11/28 05:42:41;;;;;;;33.05;15.07;;;-1.40;99.90;;;;;;4983442;28;20022;-61
2023/11/28 05:45:07;;;;;;;31.33;13.60;;;-1.40;99.90;;;;;;4983332;28;20450;-60
2023/11/28 05:47:32;;;;;;;31.85;14.70;;;-1.40;99.90;;;;;;4983365;28;20065;-61
2023/11/28 05:49:59;;;;;;;30.50;15.13;;;-1.40;99.90;;;;;;4981702;28;20027;-61
2023/11/28 05:52:25;;;;;;;42.20;18.02;;;-1.40;99.90;;;;;;4984716;28;20114;-61
2023/11/28 05:54:50;;;;;;;43.03;17.35;;;-1.40;99.90;;;;;;4982494;28;20601;-60
2023/11/28 05:57:17;;;;;;;33.42;15.30;;;-1.40;99.90;;;;;;4982668;28;20953;-60
2023/11/28 05:59:42;;;;;;;46.47;19.38;;;-1.40;99.90;;;;;;4978450;28;20026;-61
2023/11/28 06:02:08;;;;;;;39.38;18.38;;;-1.40;99.90;;;;;;4982365;28;20397;-61
2023/11/28 06:04:34;;;;;;;42.20;18.92;;;-1.50;99.90;;;;;;4982639;28;20060;-60
2023/11/28 06:07:00;;;;;;;42.72;20.15;;;-1.40;99.90;;;;;;4981061;28;20474;-61
2023/11/28 06:09:28;;;;;;;47.05;19.85;;;-1.40;99.90;;;;;;4983348;28;20038;-60
2023/11/28 06:11:54;;;;;;;41.55;18.55;;;-1.40;99.90;;;;;;4980807;28;20237;-60
2023/11/28 06:14:22;;;;;;;40.17;18.85;;;-1.40;99.90;;;;;;4982310;28;20037;-61
2023/11/28 06:16:48;;;;;;;39.75;17.70;;;-1.40;99.90;;;;;;4982083;28;20034;-60
2023/11/28 06:19:17;;;;;;;52.65;22.70;;;-1.40;99.90;;;;;;4982100;28;20081;-60
2023/11/28 06:21:46;;;;;;;49.90;22.45;;;-1.40;99.90;;;;;;4982101;28;20041;-60
2023/11/28 06:24:11;;;;;;;51.08;21.88;;;-1.50;99.90;;;;;;4982337;28;20096;-60
2023/11/28 06:26:37;;;;;;;43.80;21.10;;;-1.40;99.90;;;;;;4982240;28;20082;-60
2023/11/28 06:29:02;;;;;;;55.75;22.52;;;-1.50;99.90;;;;;;4982183;28;20048;-59
2023/11/28 06:31:28;;;;;;;53.40;22.02;;;-1.40;99.90;;;;;;4984152;28;20034;-60
2023/11/28 06:33:53;;;;;;;47.50;20.95;;;-1.50;99.90;;;;;;4982081;28;20046;-60
2023/11/28 06:36:19;;;;;;;51.33;22.95;;;-1.50;99.90;;;;;;4978384;28;20101;-65
2023/11/28 06:38:45;;;;;;;47.97;22.27;;;-1.50;99.90;;;;;;4981786;28;20162;-66
2023/11/28 06:41:11;;;;;;;55.63;23.23;;;-1.50;99.90;;;;;;4982082;28;20097;-66
2023/11/28 06:43:36;;;;;;;48.63;21.02;;;-1.50;99.90;;;;;;4983453;28;20039;-66
2023/11/28 06:46:02;;;;;;;46.08;21.13;;;-1.50;99.90;;;;;;4979710;28;20061;-73
2023/11/28 06:48:28;;;;;;;49.20;21.30;;;-1.50;99.90;;;;;;4980453;28;20037;-73
2023/11/28 06:50:53;;;;;;;52.83;24.35;;;-1.50;99.90;;;;;;4981718;28;20030;-74
2023/11/28 06:53:19;;;;;;;48.95;22.05;;;-1.50;99.90;;;;;;4980521;28;20023;-74
2023/11/28 06:55:44;;;;;;;48.40;20.55;;;-1.50;99.90;;;;;;4981723;28;20062;-73
2023/11/28 06:58:10;;;;;;;47.70;22.33;;;-1.50;99.90;;;;;;4983546;28;20031;-73
2023/11/28 07:00:36;;;;;;;48.28;21.52;;;-1.50;99.90;;;;;;4981342;28;20470;-73
2023/11/28 07:03:02;;;;;;;49.80;21.90;;;-1.50;99.90;;;;;;4981308;28;20034;-73
2023/11/28 07:05:28;;;;;;;54.13;21.88;;;-1.50;99.90;;;;;;4981345;28;20026;-73
2023/11/28 07:07:54;;;;;;;46.05;20.58;;;-1.50;99.90;;;;;;4981283;28;20037;-73
2023/11/28 07:10:20;;;;;;;48.08;22.42;;;-1.50;99.90;;;;;;4981516;28;20030;-73
2023/11/28 07:12:45;;;;;;;50.50;22.33;;;-1.50;99.90;;;;;;4981481;28;20108;-73
2023/11/28 07:15:11;;;;;;;48.33;22.27;;;-1.50;99.90;;;;;;4983290;28;20022;-73
2023/11/28 07:17:37;;;;;;;48.85;23.33;;;-1.50;99.90;;;;;;4981073;28;20892;-73
2023/11/28 07:20:02;;;;;;;45.25;20.58;;;-1.50;99.90;;;;;;4980137;28;20030;-73
2023/11/28 07:22:28;;;;;;;53.45;22.58;;;-1.50;99.90;;;;;;4981101;28;20504;-72
2023/11/28 07:24:53;;;;;;;48.13;22.25;;;-1.50;99.90;;;;;;4981100;28;20037;-72
2023/11/28 07:27:19;;;;;;;46.63;20.52;;;-1.50;99.90;;;;;;4981070;28;20030;-73
2023/11/28 07:29:44;;;;;;;48.03;21.50;;;-1.50;99.90;;;;;;4982759;28;20053;-73
2023/11/28 07:32:10;;;;;;;48.17;21.60;;;-1.50;99.90;;;;;;4981082;28;20103;-73
2023/11/28 07:34:35;;;;;;;53.33;22.80;;;-1.40;99.90;;;;;;4980887;28;20548;-73
2023/11/28 07:37:01;;;;;;;47.92;22.20;;;-1.40;99.90;;;;;;4973701;28;20088;-73
2023/11/28 07:39:27;;;;;;;54.63;23.33;;;-1.40;99.90;;;;;;4980795;28;20139;-73
2023/11/28 07:41:52;;;;;;;44.28;19.65;;;-1.40;99.90;;;;;;4980339;28;20023;-73
2023/11/28 07:44:18;;;;;;;44.83;22.60;;;-1.40;99.90;;;;;;4982168;28;20053;-73
2023/11/28 07:46:43;;;;;;;44.50;20.42;;;-1.30;99.90;;;;;;4980510;28;20069;-73
2023/11/28 07:49:09;;;;;;;45.35;19.25;;;-1.30;99.90;;;;;;4980328;28;20147;-73
2023/11/28 07:51:34;;;;;;;53.13;24.27;;;-1.30;99.90;;;;;;4980545;28;20027;-73
2023/11/28 07:53:59;;;;;;;50.35;20.15;;;-1.30;99.90;;;;;;4980612;28;20053;-73
2023/11/28 07:56:25;;;;;;;46.63;21.05;;;-1.30;99.90;;;;;;4982000;28;20398;-73
2023/11/28 07:58:50;;;;;;;45.30;21.73;;;-1.30;99.90;;;;;;4980628;28;20034;-73
2023/11/28 08:01:16;;;;;;;45.22;20.95;;;-1.20;99.90;;;;;;4980812;28;20492;-73
2023/11/28 08:03:42;;;;;;;46.30;20.33;;;-1.20;99.90;;;;;;4980316;28;20038;-73
2023/11/28 08:06:08;;;;;;;49.17;20.52;;;-1.20;99.90;;;;;;4980609;28;20106;-73
2023/11/28 08:08:34;;;;;;;43.30;21.13;;;-1.20;99.90;;;;;;4980173;28;20411;-72
2023/11/28 08:10:59;;;;;;;43.58;19.73;;;-1.20;99.90;;;;;;4982015;28;20022;-73
2023/11/28 08:13:25;;;;;;;41.50;20.30;;;-1.10;99.90;;;;;;4980031;28;20482;-73
2023/11/28 08:15:52;;;;;;;41.20;18.27;;;-1.10;99.90;;;;;;4979953;28;20622;-73
2023/11/28 08:18:18;;;;;;;39.22;19.35;;;-1.10;99.90;;;;;;4980013;28;20034;-73
2023/11/28 08:20:43;;;;;;;41.17;17.60;;;-1.10;99.90;;;;;;4980203;28;20026;-73
2023/11/28 08:23:09;;;;;;;35.88;18.23;;;-1.00;99.90;;;;;;4980070;28;20023;-73
2023/11/28 08:25:34;;;;;;;41.15;18.40;;;-1.00;99.90;;;;;;4980007;28;20027;-73
2023/11/28 08:28:00;;;;;;;33.92;16.10;;;-1.00;99.90;;;;;;4981516;28;20033;-73
2023/11/28 08:30:25;;;;;;;33.95;15.75;;;-0.90;99.90;;;;;;4979781;28;20030;-73
2023/11/28 08:32:51;;;;;;;39.45;17.63;;;-0.90;99.90;;;;;;4979620;28;20036;-73
2023/11/28 08:35:16;;;;;;;37.42;16.98;;;-0.90;99.90;;;;;;4978187;28;20026;-72
2023/11/28 08:37:42;;;;;;;30.38;15.55;;;-0.90;99.90;;;;;;4976301;28;20342;-73
2023/11/28 08:40:08;;;;;;;34.08;16.25;;;-0.80;99.90;;;;;;4979831;28;20034;-72
2023/11/28 08:42:33;;;;;;;31.88;15.02;;;-0.80;99.90;;;;;;4981688;28;20072;-73
2023/11/28 08:44:59;;;;;;;37.42;16.40;;;-0.70;99.90;;;;;;4979725;28;20101;-73
2023/11/28 08:47:25;;;;;;;34.40;15.50;;;-0.70;99.90;;;;;;4979732;28;20053;-73
2023/11/28 08:49:50;;;;;;;31.15;14.00;;;-0.60;99.90;;;;;;4979698;28;20472;-72
2023/11/28 08:52:17;;;;;;;32.70;14.98;;;-0.70;99.90;;;;;;4979746;28;20038;-72
2023/11/28 08:54:44;;;;;;;31.88;15.55;;;-0.60;99.90;;;;;;4979320;28;20083;-72
2023/11/28 08:57:10;;;;;;;32.35;14.80;;;-0.60;99.90;;;;;;4979846;28;20498;-73
2023/11/28 08:59:36;;;;;;;28.98;13.95;;;-0.70;99.90;;;;;;4979945;28;20026;-73
2023/11/28 09:02:02;;;;;;;29.20;14.60;;;-0.60;99.90;;;;;;4979630;28;20026;-73
2023/11/28 09:04:27;;;;;;;28.92;14.25;;;-0.70;99.90;;;;;;4979208;28;20413;-73
2023/11/28 09:06:53;;;;;;;31.83;14.60;;;-0.70;99.90;;;;;;4979616;28;20022;-60
2023/11/28 09:09:18;;;;;;;27.02;13.02;;;-0.70;99.90;;;;;;4978045;28;20034;-62
2023/11/28 09:11:44;;;;;;;26.30;13.63;;;-0.70;99.90;;;;;;4981482;28;20030;-60
2023/11/28 09:14:09;;;;;;;25.23;12.70;;;-0.70;99.90;;;;;;4979471;28;20030;-60
2023/11/28 09:16:35;;;;;;;25.33;13.15;;;-0.70;99.90;;;;;;4979094;28;20495;-59
2023/11/28 09:19:01;;;;;;;22.95;12.77;;;-0.70;99.90;;;;;;4979632;28;20106;-60
2023/11/28 09:21:26;;;;;;;23.17;12.40;;;-0.60;99.90;;;;;;4979351;28;20101;-60
2023/11/28 09:23:52;;;;;;;19.85;10.48;;;-0.60;99.90;;;;;;4980181;28;20037;-59
2023/11/28 09:26:17;;;;;;;28.50;13.50;;;-0.60;99.90;;;;;;4977133;28;20037;-60
2023/11/28 09:28:43;;;;;;;29.60;13.25;;;-0.50;99.90;;;;;;4979292;28;20058;-59
2023/11/28 09:31:08;;;;;;;24.55;13.25;;;-0.50;99.90;;;;;;4979013;28;20058;-59
2023/11/28 09:33:35;;;;;;;26.02;13.05;;;-0.50;99.90;;;;;;4979302;28;20490;-60
2023/11/28 09:36:00;;;;;;;25.90;11.82;;;-0.40;99.90;;;;;;4975533;28;20022;-58
2023/11/28 09:38:26;;;;;;;28.38;13.05;;;-0.40;99.90;;;;;;4975743;28;20149;-59
2023/11/28 09:40:51;;;;;;;22.23;12.05;;;-0.30;99.90;;;;;;4981051;28;20051;-60
2023/11/28 09:43:18;;;;;;;26.98;12.35;;;-0.30;99.90;;;;;;4979715;28;20042;-59
2023/11/28 09:45:44;;;;;;;27.15;13.27;;;-0.20;99.90;;;;;;4982576;28;20560;-59
2023/11/28 09:48:11;;;;;;;24.00;13.57;;;-0.20;99.90;;;;;;4982849;28;20026;-60
2023/11/28 09:50:38;;;;;;;21.75;11.40;;;-0.20;99.90;;;;;;4982566;28;20062;-60
2023/11/28 09:53:05;;;;;;;22.05;11.73;;;-0.30;99.90;;;;;;4982273;28;20018;-59
2023/11/28 09:55:31;;;;;;;27.42;13.18;;;-0.20;99.90;;;;;;4982290;28;20109;-60
2023/11/28 09:57:57;;;;;;;24.83;13.02;;;-0.30;99.90;;;;;;4982525;28;20442;-59
2023/11/28 10:00:24;;;;;;;24.88;12.80;;;-0.30;99.90;;;;;;4984194;28;20026;-60
2023/11/28 10:02:57;;;;;;;26.17;13.30;;;-0.30;99.90;;;;;;4981143;28;20406;-60
2023/11/28 10:05:22;;;;;;;23.65;12.18;;;-0.30;99.90;;;;;;4982506;28;20504;-60
2023/11/28 10:07:53;;;;;;;26.33;13.15;;;-0.30;99.90;;;;;;4981863;28;20054;-60
2023/11/28 10:10:23;;;;;;;24.25;13.38;;;-0.30;99.90;;;;;;4982281;28;20050;-60
2023/11/28 10:12:51;;;;;;;23.42;12.38;;;-0.20;99.90;;;;;;4982598;28;20025;-60
2023/11/28 10:15:17;;;;;;;24.63;12.18;;;-0.20;99.90;;;;;;4982111;28;20314;-59
2023/11/28 10:17:44;;;;;;;28.55;12.32;;;-0.20;99.90;;;;;;4981954;28;20087;-60
2023/11/28 10:20:10;;;;;;;23.63;11.38;;;-0.20;99.90;;;;;;4980865;28;20501;-60
2023/11/28 10:22:35;;;;;;;20.50;10.68;;;-0.20;99.90;;;;;;4982193;28;20037;-60
2023/11/28 10:25:10;;;;;;;24.63;12.98;;;-0.10;99.90;;;;;;4984027;28;20109;-60
2023/11/28 10:27:43;;;;;;;25.92;11.80;;;-0.10;99.90;;;;;;4982163;28;20100;-59
2023/11/28 10:30:13;;;;;;;24.23;12.75;;;-0.10;99.90;;;;;;4982258;28;20026;-60
2023/11/28 10:32:39;;;;;;;22.88;11.55;;;-0.10;99.90;;;;;;4982060;28;20178;-60
2023/11/28 10:35:05;;;;;;;24.15;11.88;;;-0.10;99.90;;;;;;4981961;28;20201;-59
2023/11/28 10:37:39;;;;;;;24.20;12.48;;;-0.10;99.90;;;;;;4977098;28;20026;-60
2023/11/28 10:40:18;;;;;;;23.48;11.73;;;-0.10;99.90;;;;;;4979560;28;20034;-60
2023/11/28 10:42:44;;;;;;;24.05;12.07;;;0.00;99.90;;;;;;4978922;28;20105;-60
2023/11/28 10:45:11;;;;;;;16.60;10.25;;;0.10;99.90;;;;;;4981749;28;20453;-60
2023/11/28 10:47:40;;;;;;;25.40;12.00;;;0.10;99.90;;;;;;4981728;28;20053;-63
2023/11/28 10:50:07;;;;;;;22.00;11.43;;;0.20;99.90;;;;;;4983201;28;20034;-64
2023/11/28 10:52:36;;;;;;;22.48;10.70;;;0.20;99.90;;;;;;4982772;28;20514;-65
2023/11/28 10:55:07;;;;;;;18.70;9.93;;;0.30;99.90;;;;;;4983373;28;20019;-65
2023/11/28 10:57:37;;;;;;;17.23;9.43;;;0.30;99.70;;;;;;4981855;28;20486;-64
2023/11/28 11:00:09;;;;;;;21.77;11.40;;;0.40;99.90;;;;;;4980860;28;20014;-64
2023/11/28 11:02:35;;;;;;;18.00;9.55;;;0.40;99.90;;;;;;4981553;28;20053;-64
2023/11/28 11:05:06;;;;;;;18.95;8.90;;;0.50;99.70;;;;;;4981478;28;20375;-64
2023/11/28 11:07:32;;;;;;;14.70;8.38;;;0.50;99.40;;;;;;4981370;28;20515;-65
2023/11/28 11:09:58;;;;;;;22.80;10.07;;;0.60;99.90;;;;;;4981162;28;20117;-65
2023/11/28 11:12:24;;;;;;;15.75;8.95;;;0.60;99.50;;;;;;4981291;28;20049;-64
2023/11/28 11:15:08;;;;;;;17.48;9.60;;;0.70;99.60;;;;;;4981229;28;20022;-64
2023/11/28 11:17:51;;;;;;;17.60;9.23;;;0.70;99.10;;;;;;4981193;28;20026;-65
2023/11/28 11:20:18;;;;;;;16.95;9.20;;;0.60;98.20;;;;;;4978310;28;20529;-64
2023/11/28 11:22:47;;;;;;;18.00;8.93;;;0.60;97.70;;;;;;4981416;28;20030;-64
2023/11/28 11:25:13;;;;;;;16.85;9.20;;;0.60;98.40;;;;;;4981136;28;20033;-64
2023/11/28 11:27:38;;;;;;;16.23;8.95;;;0.60;98.10;;;;;;4982907;28;20034;-65
2023/11/28 11:30:05;;;;;;;15.85;8.88;;;0.70;98.40;;;;;;4980918;28;20046;-64
2023/11/28 11:32:33;;;;;;;20.58;8.75;;;0.60;97.90;;;;;;4980811;28;20030;-65
2023/11/28 11:35:00;;;;;;;17.08;9.23;;;0.70;98.10;;;;;;4980906;28;20058;-64
2023/11/28 11:37:33;;;;;;;15.80;8.57;;;0.60;97.60;;;;;;4976959;28;20030;-64
2023/11/28 11:40:00;;;;;;;17.58;8.63;;;0.60;97.40;;;;;;4976627;28;20023;-64
2023/11/28 11:42:27;;;;;;;15.02;7.82;;;0.50;97.40;;;;;;4980490;28;20505;-65
2023/11/28 11:44:57;;;;;;;18.58;9.10;;;0.50;97.20;;;;;;4980271;28;20053;-64
2023/11/28 11:47:27;;;;;;;17.13;8.68;;;0.50;96.70;;;;;;4980612;28;20114;-64
2023/11/28 11:49:55;;;;;;;15.10;8.05;;;0.50;97.10;;;;;;4980494;28;20426;-63
2023/11/28 11:52:25;;;;;;;19.70;8.32;;;0.50;97.20;;;;;;4982302;28;20043;-64
2023/11/28 11:54:52;;;;;;;15.07;7.90;;;0.50;97.70;;;;;;4978885;28;20367;-64
2023/11/28 11:57:19;;;;;;;14.85;8.63;;;0.50;98.20;;;;;;4978263;28;20046;-64
2023/11/28 11:59:45;;;;;;;15.02;8.63;;;0.50;98.90;;;;;;4980641;28;20033;-64
2023/11/28 12:02:10;;;;;;;15.93;7.97;;;0.50;99.10;;;;;;4980505;28;20018;-65
2023/11/28 12:04:44;;;;;;;16.85;8.88;;;0.50;99.50;;;;;;4980174;28;20062;-65
2023/11/28 12:07:12;;;;;;;19.98;9.35;;;0.50;99.90;;;;;;4979646;28;20065;-65
2023/11/28 12:09:39;;;;;;;15.75;7.55;;;0.50;99.90;;;;;;4980208;28;20549;-65
2023/11/28 12:12:06;;;;;;;16.85;8.52;;;0.40;99.90;;;;;;4980234;28;20117;-65
2023/11/28 12:14:32;;;;;;;15.90;8.38;;;0.40;99.90;;;;;;4980086;28;20101;-65
2023/11/28 12:17:02;;;;;;;21.10;10.68;;;0.40;99.90;;;;;;4980149;28;20030;-63
2023/11/28 12:19:32;;;;;;;21.17;9.32;;;0.40;99.90;;;;;;4976225;28;20031;-64
2023/11/28 12:22:01;;;;;;;17.40;9.95;;;0.30;99.30;;;;;;4979991;28;20062;-63
2023/11/28 12:24:28;;;;;;;19.02;9.57;;;0.20;99.40;;;;;;4980030;28;20120;-63
2023/11/28 12:26:53;;;;;;;17.73;9.48;;;0.10;98.80;;;;;;4981725;28;20057;-65